Bloomington, IN

12:48 AM EDT on April 27, 2017 (GMT -0400)
MAU627 | | Change Station

Elev 839 ft 39.18 °N, 86.50 °W | Updated 19 minutes ago

Overcast
Overcast
73.0 °F
Feels Like 77 °F
N
12.0
Wind Variable Wind from NW
Gusts 21.0 mph

Today
High -- | Low -- °F
--% Chance of Precip.
Yesterday
High -- | Low -- °F
Precip. -- in
Pressure 29.53 in
Visibility 10.0 miles
Clouds Few 5000 ft
Mostly Cloudy 7000 ft
Heat Index 77 °F
Dew Point 57 °F
Humidity 57%
Rainfall 0.00 in
Snow Depth Not available.
6:52 AM 8:35 PM
New Moon, 1% visible
SPECI KBMG 270408Z AUTO 25013G19KT 10SM FEW050 BKN070 20/14 A2953 RMK AO2 WSHFT 0348 T02000139
Pressure 29.53 in
Visibility 10.0 miles
Clouds Few 5000 ft
Mostly Cloudy 7000 ft
Heat Index 77 °F
Dew Point 57 °F
Humidity 57%
Rainfall 0.00 in
Snow Depth Not available.
6:52 AM 8:35 PM
New Moon, 1% visible
SPECI KBMG 270408Z AUTO 25013G19KT 10SM FEW050 BKN070 20/14 A2953 RMK AO2 WSHFT 0348 T02000139

Get Severe Weather Alerts

Thanks for signing up!

Be on the lookout for a verification email in your inbox.

You'll start receiving the daily forecast at 8 AM.

×

10-Day Weather Forecast

Almanac

Astronomy

Apr. 27, 2017 Rise Set
Actual Time
Civil Twilight
Nautical Twilight
Astronomical Twilight
Moon
Length of Visible Light
Length of Day
Tomorrow will be .
, % of the Moon is Illuminated

Today's Extremes

State Highs State Lows

Community

WunderPhotos

WunderBlog® & News

Nearby

Air Quality

  Air Quality AQ Index Pollutant
Not available.

Snow Depth

Station Depth Elevation

Earthquake Activity

City Distance Mag. Time & Date
Minimum magnitude displayed is 2.5.

Coastal Water Temperatures

Place Temperature

Stations

Nearby Weather Stations

Station Location Temp. Windchill Dew Point Humidity Wind Precip. Elev Updated Type
                   

Watches & Warnings

There are currently no watches in effect.